• Join FlightAware (Why Join?)
  • Login
  • US Flag 
 
05:13AM EST


 

Airport Tracker/Info


-or-


 

Live Flight TrackerFlight Track Log ✈ GGN7268 ✈ 05-May-2013 ✈ CYYZ - KGRR

Flight Track Log - Related Links

Times and Time Zones

All times are in EDT time to prevent confusion due to time zone crossing. See the GGN7268 flight status page for this flight to view local times or setup timezone preferences in your user account.

Time Position Orientation Groundspeed Altitude Reporting Facility
EDT Latitude Longitude Course Direction KTS MPH feet Rate Location/Type
08:10PM 43.6833 -79.5833 324° Northwest 100 115 1,800  Level Toronto Center
08:11PM 43.7167 -79.6167 324° Northwest 190 219 2,900 960 Climbing Toronto Center
08:12PM 43.7667 -79.6833 316° Northwest 220 253 3,800 900 Climbing Toronto Center
08:13PM 43.7667 -79.7667 270° West 230 265 4,700 900 Climbing Toronto Center
08:14PM 43.7500 -79.8333 251° West 230 265 5,600 600 Climbing Toronto Center
08:15PM 43.7500 -79.9333 270° West 230 265 6,000 180 Climbing Toronto Center
08:16PM 43.7500 -80.0333 270° West 250 288 6,000 180 Level Toronto Center
08:17PM 43.7500 -80.1333 270° West 250 288 6,400 420 Climbing Toronto Center
08:18PM 43.7500 -80.2333 270° West 250 288 6,900 480 Climbing Toronto Center
08:19PM 43.7333 -80.3333 257° West 250 288 7,400 480 Climbing Toronto Center
08:20PM 43.7167 -80.4167 255° West 250 288 7,900 300 Climbing Toronto Center
08:21PM 43.7000 -80.5167 257° West 260 299 8,000  Climbing Toronto Center
08:22PM 43.6833 -80.6000 255° West 260 299 8,000  Level Toronto Center
08:23PM 43.6667 -80.7000 257° West 260 299 8,000  Level Toronto Center
08:24PM 43.6500 -80.7833 255° West 250 288 8,000 -60 Level Toronto Center
08:25PM 43.6167 -80.9000 248° West 250 288 7,900 -60 Descending Toronto Center
08:26PM 43.6000 -80.9833 255° West 250 288 7,900  Level Toronto Center
08:27PM 43.6000 -81.0833 270° West 250 288 7,900  Level Toronto Center
08:28PM 43.5833 -81.1833 257° West 250 288 7,900  Level Toronto Center
08:29PM 43.5667 -81.2667 255° West 250 288 7,900  Level Toronto Center
08:30PM 43.5500 -81.3667 257° West 250 288 7,900  Level Toronto Center
08:31PM 43.5333 -81.4500 255° West 250 288 7,900  Level Toronto Center
08:32PM 43.5167 -81.5333 255° West 250 288 7,900  Level Toronto Center
08:33PM 43.5167 -81.6333 270° West 240 276 7,900  Level Toronto Center
08:34PM 43.5000 -81.7167 255° West 240 276 7,900  Level Toronto Center
08:35PM 43.4833 -81.8167 257° West 240 276 7,900  Level Toronto Center
08:36PM 43.4667 -81.9000 255° West 250 288 7,900  Level Toronto Center
08:37PM 43.4333 -82.0000 245° Southwest 260 299 7,900  Level Toronto Center
08:38PM 43.4167 -82.1167 259° West 260 299 8,000 60 Climbing Toronto Center
08:38PM 43.4292 -82.1439 302° West 260 299 8,000  Level Cleveland Center
08:39PM 43.4131 -82.2406 257° West 260 299 8,000  Level Cleveland Center
08:40PM 43.3972 -82.3317 257° West 260 299 8,000  Level Cleveland Center
08:41PM 43.3792 -82.4283 256° West 260 299 8,000  Level Cleveland Center
08:42PM 43.3667 -82.4833 253° West 260 299 8,000  Level Toronto Center
08:43PM 43.3500 -82.5667 255° West 260 299 8,000  Level Toronto Center
08:44PM 43.3167 -82.6833 249° West 260 299 8,000  Level Toronto Center
08:44PM 43.3325 -82.7067 313° West 260 299 8,000  Level Cleveland Center
08:45PM 43.3164 -82.8003 257° West 260 299 8,000  Level Cleveland Center
08:46PM 43.2997 -82.8967 257° West 260 299 8,000  Level Cleveland Center
08:47PM 43.2811 -82.9900 255° West 260 299 8,000  Level Cleveland Center
08:48PM 43.2625 -83.0861 255° West 254 292 8,000  Level Cleveland Center
08:49PM 43.2458 -83.1797 256° West 259 298 8,000  Level Cleveland Center
08:50PM 43.2267 -83.2842 256° West 259 298 8,000  Level Cleveland Center
08:51PM 43.2078 -83.3775 255° West 259 298 8,000  Level Cleveland Center
08:52PM 43.1908 -83.4736 256° West 259 298 8,000  Level Cleveland Center
08:53PM 43.1719 -83.5667 254° West 259 298 8,000  Level Cleveland Center
08:54PM 43.1547 -83.6625 256° West 259 298 8,000  Level Cleveland Center
08:55PM 43.1356 -83.7583 255° West 259 298 8,000  Level Cleveland Center
08:56PM 43.1164 -83.8483 254° West 259 298 8,000  Level Cleveland Center
08:57PM 43.0989 -83.9442 256° West 259 298 8,000  Level Cleveland Center
08:58PM 43.0839 -84.0286 256° West 259 298 8,000  Level Cleveland Center
09:00PM 43.0399 -84.1624 246° West  Level FlightAware Approximate
09:05PM 42.9589 -84.6575 255° West 260 299 8,000  Level Chicago Center
09:06PM 42.9394 -84.7514 254° West 259 298 8,000  Level Chicago Center
09:07PM 42.9098 -84.7824 256° West  Level FlightAware Approximate
09:07PM 42.9206 -84.8467 255° West 260 299 8,000  Level Chicago Center
09:08PM 42.8936 -84.8711 256° West  Level FlightAware Approximate
09:08PM 42.9078 -84.9461 260° West 265 305 7,000  Level Chicago Center
09:09PM 42.8772 -84.9597 256° West  Level FlightAware Approximate
09:09PM 42.8956 -85.0456 261° West 268 308 5,900  Level Chicago Center
09:10PM 42.8636 -85.0488 255° West  Level FlightAware Approximate
09:10PM 42.8844 -85.1669 263° West 270 311 4,600  Level Chicago Center
09:11PM 42.8806 -85.2700 267° West 271 312 3,500 -1,080 Descending Chicago Center
09:12PM 42.8883 -85.3683 276° West 268 308 2,400 -840 Descending Chicago Center
09:13PM 42.8867 -85.4450 268° West 226 260 1,800 -720 Descending Chicago Center
09:14PM 42.8792 -85.5175 262° West 202 232 1,000 -780 Descending Chicago Center
09:16PM 42.8808 -85.5228 340° North  Level Estimated
09:23PM 42.8808 -85.5228 340° North  Level Estimated